createdAt,value
2023-06-07T14:48:47.749Z,54.43
2023-06-07T14:49:47.612Z,54.60
2023-06-07T14:50:47.590Z,54.60
2023-06-07T14:51:47.632Z,54.38
2023-06-07T14:52:47.552Z,52.86
2023-06-07T14:53:47.585Z,51.35
2023-06-07T14:55:10.336Z,51.05
2023-06-07T14:55:47.533Z,50.65
2023-06-07T14:56:50.751Z,51.35
2023-06-07T14:57:47.539Z,51.23
2023-06-07T14:58:47.530Z,51.23
2023-06-07T14:59:47.545Z,51.30
2023-06-07T15:01:08.742Z,50.88
2023-06-07T15:01:47.548Z,49.76
2023-06-07T15:02:47.483Z,48.97
2023-06-07T15:09:00.674Z,49.05
2023-06-07T15:10:01.701Z,49.22
2023-06-07T15:11:01.634Z,49.29
2023-06-07T15:12:01.634Z,49.96
2023-06-07T15:13:01.633Z,49.17
2023-06-07T15:14:01.609Z,48.06
2023-06-07T15:15:01.605Z,46.75
2023-06-07T15:16:01.622Z,46.26
2023-06-07T15:17:01.746Z,46.26
2023-06-07T15:18:02.492Z,46.23
2023-06-07T15:19:01.550Z,45.54
2023-06-07T15:20:01.572Z,45.45
2023-06-07T15:21:01.553Z,45.84
2023-06-07T15:22:01.517Z,47.20
2023-06-07T15:23:01.524Z,46.22
2023-06-07T15:24:01.533Z,46.69
2023-06-07T15:25:01.483Z,44.49
2023-06-07T15:26:02.228Z,44.20
2023-06-07T15:27:01.485Z,44.29
2023-06-07T15:28:01.417Z,44.00
2023-06-07T15:29:01.468Z,44.00
2023-06-07T15:30:01.402Z,43.80
2023-06-07T15:31:01.445Z,43.88
2023-06-07T15:32:01.405Z,43.88
2023-06-07T15:33:01.479Z,43.76
2023-06-07T15:34:01.370Z,42.97
2023-06-07T15:35:24.568Z,40.88
2023-06-07T15:36:01.381Z,40.76
2023-06-07T15:37:01.329Z,40.37
2023-06-07T15:38:05.433Z,40.35
2023-06-07T15:39:01.330Z,43.10
2023-06-07T15:40:01.370Z,43.87
2023-06-07T15:41:01.275Z,39.94
2023-06-07T15:42:23.483Z,39.15
2023-06-07T15:43:01.327Z,39.34
2023-06-07T15:57:37.464Z,37.95
2023-06-07T15:58:00.641Z,37.76
2023-06-07T15:59:04.351Z,37.76
2023-06-07T16:00:03.205Z,38.34
2023-06-07T16:01:00.662Z,38.76
2023-06-07T16:02:33.235Z,38.56
2023-06-07T16:03:00.648Z,38.46
2023-06-07T16:04:00.684Z,39.92
2023-06-07T16:05:00.564Z,38.46
2023-06-07T16:06:00.552Z,39.39
2023-06-07T16:21:55.902Z,40.39
2023-06-07T16:22:52.083Z,41.59
2023-06-07T16:23:52.145Z,41.83
2023-06-07T16:24:52.029Z,42.44
2023-06-07T16:25:52.075Z,42.76
2023-06-07T16:26:52.153Z,43.19
2023-06-07T16:27:52.026Z,43.71
2023-06-07T16:28:52.037Z,44.02
2023-06-07T16:29:52.032Z,44.23
2023-06-07T16:30:52.082Z,44.72
2023-06-07T16:31:51.989Z,44.32
2023-06-07T16:32:52.702Z,44.84
2023-06-07T16:33:52.008Z,45.12
2023-06-07T16:34:51.939Z,45.21
2023-06-07T16:35:51.945Z,45.41
2023-06-07T16:36:51.917Z,46.40
2023-06-07T16:37:51.883Z,45.12
2023-06-07T16:38:51.971Z,45.51
2023-06-07T16:39:51.922Z,47.27
2023-06-07T16:40:51.951Z,47.37
2023-06-07T16:41:51.836Z,47.17
2023-06-07T16:42:51.861Z,46.36
2023-06-07T16:43:51.860Z,47.05
2023-06-07T16:44:51.864Z,46.85
2023-06-07T16:45:51.890Z,47.64
2023-06-07T16:46:51.992Z,47.54
2023-06-07T16:47:51.800Z,47.25
2023-06-07T16:48:51.794Z,46.55
2023-06-07T16:49:51.760Z,46.44
2023-06-07T16:50:51.791Z,47.72
2023-06-07T16:51:51.763Z,47.91
2023-06-07T16:52:51.846Z,47.91
2023-06-07T16:53:51.736Z,45.54
2023-06-07T16:54:51.738Z,44.65
2023-06-07T16:55:52.656Z,44.16
2023-06-07T16:56:51.750Z,44.75
2023-06-07T16:57:51.702Z,46.04
2023-06-07T16:58:51.688Z,47.22
2023-06-07T16:59:51.658Z,47.52
2023-06-07T17:00:51.664Z,47.91
2023-06-07T17:01:51.678Z,45.45
2023-06-07T17:02:51.713Z,44.24
2023-06-07T17:03:51.697Z,44.04
2023-06-07T17:04:51.617Z,45.23
2023-06-07T17:05:51.581Z,43.82
2023-06-07T17:06:51.601Z,43.60
2023-06-07T17:07:52.132Z,42.99
2023-06-07T17:08:51.635Z,42.40
2023-06-07T17:09:51.546Z,43.09
2023-06-07T17:10:51.559Z,43.09
2023-06-07T17:11:51.527Z,42.50
2023-06-07T17:12:51.504Z,42.60
2023-06-07T17:13:51.512Z,44.47
2023-06-07T17:14:51.551Z,44.94
2023-06-07T17:15:51.568Z,42.30
2023-06-07T17:16:51.527Z,42.30
2023-06-07T17:17:51.454Z,42.60
2023-06-07T17:18:51.456Z,42.68
2023-06-07T17:19:51.422Z,42.58
2023-06-07T17:20:51.465Z,42.18
2023-06-07T17:21:51.395Z,42.38
2023-06-07T17:22:51.383Z,41.89
2023-06-07T17:23:51.420Z,42.10
2023-06-07T17:24:51.406Z,41.69
2023-06-07T17:25:52.146Z,41.61
2023-06-07T17:26:51.412Z,42.52
2023-06-07T17:27:51.345Z,43.23
2023-06-07T17:28:52.161Z,44.42
2023-06-07T17:29:51.338Z,45.38
2023-06-07T17:30:52.024Z,45.48
2023-06-07T17:31:51.343Z,42.82
2023-06-07T17:32:51.365Z,42.91
2023-06-07T17:33:51.284Z,42.91
2023-06-07T17:34:51.283Z,42.60
2023-06-07T17:35:51.270Z,42.38
2023-06-07T17:36:51.265Z,42.28
2023-06-07T17:37:51.208Z,42.68
2023-06-07T17:38:51.447Z,42.28
2023-06-07T17:39:51.193Z,41.86
2023-06-07T17:40:51.212Z,41.47
2023-06-07T17:41:51.168Z,40.48
2023-06-07T17:42:51.205Z,40.00
2023-06-07T17:43:51.180Z,40.58
2023-06-07T17:44:51.198Z,39.79
2023-06-07T17:45:51.222Z,41.06
2023-06-07T17:46:51.314Z,39.58
2023-06-07T17:47:51.207Z,41.16
2023-06-07T17:48:51.200Z,41.75
2023-06-07T17:49:51.095Z,42.63
2023-06-07T17:50:51.105Z,39.87
2023-06-07T17:51:51.053Z,38.38
2023-06-07T17:52:51.122Z,37.71
2023-06-07T17:53:51.475Z,38.20
2023-06-07T17:54:51.051Z,38.40
2023-06-07T17:55:51.053Z,38.01
2023-06-07T17:56:51.082Z,38.38
2023-06-07T17:57:51.048Z,38.18
2023-06-07T17:58:51.050Z,37.79
2023-06-07T17:59:50.997Z,36.71
2023-06-07T18:00:51.030Z,37.20
2023-06-07T18:01:51.176Z,36.86
2023-06-07T18:02:51.083Z,37.66
2023-06-07T18:03:51.006Z,38.85
2023-06-07T18:04:50.971Z,40.70
2023-06-07T18:05:50.914Z,40.01
2023-06-07T18:06:50.923Z,38.73
2023-06-07T18:07:51.027Z,40.48
2023-06-07T18:08:50.926Z,38.91
2023-06-07T18:09:50.866Z,40.37
2023-06-07T18:10:50.902Z,39.87
2023-06-07T18:11:50.849Z,38.68
2023-06-07T18:12:50.986Z,38.68
2023-06-07T18:13:50.787Z,38.78
2023-06-07T18:14:50.872Z,39.56
2023-06-07T18:15:50.810Z,39.54
2023-06-07T18:16:52.839Z,39.05
2023-06-07T18:17:54.248Z,39.34
2023-06-07T18:18:51.546Z,39.15
2023-06-07T18:19:50.721Z,39.18
2023-06-07T18:20:50.817Z,39.78
2023-06-07T18:21:50.744Z,40.19
2023-06-07T18:22:50.762Z,40.88
2023-06-07T18:23:51.513Z,41.47
2023-06-07T18:24:50.735Z,40.88
2023-06-07T18:25:50.731Z,39.60
2023-06-07T18:26:50.734Z,39.39
2023-06-07T18:27:50.671Z,38.71
2023-06-07T18:28:50.683Z,39.97
2023-06-07T18:29:50.652Z,38.49
2023-06-07T18:30:50.673Z,37.51
2023-06-07T18:31:50.609Z,39.86
2023-06-07T18:32:50.710Z,38.38
2023-06-07T18:33:50.828Z,37.97
2023-06-07T18:34:50.629Z,36.59
2023-06-07T18:35:50.600Z,37.02
2023-06-07T18:36:50.622Z,38.02
2023-06-07T18:37:50.539Z,38.62
2023-06-07T18:38:50.599Z,38.91
2023-06-07T18:39:50.548Z,39.31
2023-06-07T18:40:50.558Z,40.01
2023-06-07T18:41:51.222Z,40.53
2023-06-07T18:42:50.561Z,40.64
2023-06-07T18:43:50.550Z,40.74
2023-06-07T18:44:50.766Z,40.62
2023-06-07T18:45:50.562Z,40.03
2023-06-07T18:46:50.593Z,40.31
2023-06-07T18:47:50.532Z,39.64
2023-06-07T18:48:50.488Z,40.21
2023-06-07T18:49:50.444Z,39.23
2023-06-07T18:50:50.582Z,39.32
2023-06-07T18:51:50.605Z,39.72
2023-06-07T18:52:53.799Z,39.92
2023-06-07T18:53:51.309Z,40.00
2023-06-07T18:54:52.026Z,39.89
2023-06-07T18:55:51.749Z,39.40
2023-06-07T18:56:53.058Z,39.39
2023-06-07T18:57:53.237Z,39.28
2023-06-07T18:58:52.572Z,38.97
2023-06-07T18:59:51.430Z,38.97
2023-06-07T19:00:55.165Z,39.48
2023-06-07T19:01:52.532Z,39.78
2023-06-07T19:02:51.517Z,39.28
2023-06-07T19:03:51.306Z,39.52
2023-06-07T19:04:51.249Z,40.53
2023-06-07T19:05:50.296Z,41.04
2023-06-07T19:06:52.124Z,40.92
2023-06-07T19:07:50.251Z,41.22
2023-06-07T19:08:50.262Z,41.41
2023-06-07T19:09:50.205Z,41.41
2023-06-07T19:10:50.219Z,41.41
2023-06-07T19:11:50.187Z,41.61
2023-06-07T19:12:50.237Z,41.39
2023-06-07T19:13:50.832Z,41.30
2023-06-07T19:14:50.158Z,41.30
2023-06-07T19:15:50.162Z,41.96
2023-06-07T19:16:50.253Z,41.86
2023-06-07T19:17:50.124Z,41.38
2023-06-07T19:18:50.136Z,42.24
2023-06-07T19:19:50.115Z,42.04
2023-06-07T19:20:50.141Z,41.16
2023-06-07T19:21:50.080Z,41.55
2023-06-07T19:22:50.756Z,41.55
2023-06-07T19:23:50.108Z,41.65
2023-06-07T19:24:50.057Z,41.65
2023-06-07T19:25:50.038Z,42.24
2023-06-07T19:26:50.077Z,41.75
2023-06-07T19:27:50.006Z,42.63
2023-06-07T19:28:50.119Z,43.52
2023-06-07T19:29:50.034Z,43.52
2023-06-07T19:30:50.024Z,43.32
2023-06-07T19:31:49.967Z,41.94
2023-06-07T19:32:51.191Z,42.04
2023-06-07T19:33:50.292Z,41.55
2023-06-07T19:34:50.195Z,42.14
2023-06-07T19:35:49.997Z,43.62
2023-06-07T19:36:49.984Z,44.11
2023-06-07T19:37:49.909Z,43.82
2023-06-07T19:38:50.000Z,44.51
2023-06-07T19:39:49.863Z,44.72
2023-06-07T19:40:49.962Z,44.82
2023-06-07T19:41:49.851Z,45.02
2023-06-07T19:42:49.873Z,45.51
2023-06-07T19:43:50.030Z,45.31
2023-06-07T19:44:49.877Z,43.93
2023-06-07T19:45:49.804Z,42.55
2023-06-07T19:46:49.927Z,42.68
2023-06-07T19:47:49.838Z,42.77
2023-06-07T19:48:49.815Z,42.87
2023-06-07T19:49:49.763Z,43.17
2023-06-07T19:50:50.746Z,43.38
2023-06-07T19:51:49.743Z,43.38
2023-06-07T19:52:49.815Z,43.60
2023-06-07T19:53:49.703Z,43.43
2023-06-07T19:54:50.781Z,43.74
2023-06-07T19:55:49.733Z,44.24
2023-06-07T19:56:49.771Z,44.73
2023-06-07T19:57:52.567Z,45.42
2023-06-07T19:58:49.754Z,45.72
2023-06-07T19:59:49.642Z,46.01
2023-06-07T20:00:50.457Z,46.22
2023-06-07T20:01:50.324Z,46.51
2023-06-07T20:02:49.777Z,46.41
2023-06-07T20:03:49.644Z,46.61
2023-06-07T20:04:49.672Z,46.70
2023-06-07T20:05:49.606Z,46.93
2023-06-07T20:06:49.617Z,47.03
2023-06-07T20:07:49.661Z,47.32
2023-06-07T20:08:49.609Z,47.42
2023-06-07T20:09:49.521Z,47.13
2023-06-07T20:10:49.613Z,46.83
2023-06-07T20:11:49.527Z,46.83
2023-06-07T20:12:49.528Z,47.32
2023-06-07T20:13:49.472Z,47.81
2023-06-07T20:14:49.513Z,48.41
2023-06-07T20:15:49.469Z,49.49
2023-06-07T20:16:49.478Z,50.31
2023-06-07T20:17:49.464Z,50.71
2023-06-07T20:18:49.483Z,50.81
2023-06-07T20:19:49.417Z,51.70
2023-06-07T20:20:49.510Z,52.48
2023-06-07T20:21:49.361Z,53.20
2023-06-07T20:22:49.423Z,53.75
2023-06-07T20:23:49.411Z,53.25
2023-06-07T20:24:50.304Z,54.57
2023-06-07T20:25:50.403Z,54.39
2023-06-07T20:26:49.392Z,55.19
2023-06-07T20:27:49.275Z,55.19
2023-06-07T20:28:49.348Z,55.91
2023-06-07T20:29:49.296Z,56.11
2023-06-07T20:30:49.302Z,55.91
2023-06-07T20:31:49.316Z,56.30
2023-06-07T20:32:49.314Z,56.73
2023-06-07T20:33:49.218Z,57.03
2023-06-07T20:34:49.280Z,57.45
2023-06-07T20:35:49.228Z,57.98
2023-06-07T20:36:49.282Z,58.92
2023-06-07T20:37:49.222Z,59.75
2023-06-07T20:38:49.307Z,59.95
2023-06-07T20:39:49.165Z,60.25
2023-06-07T20:40:49.224Z,60.47
2023-06-07T20:41:49.172Z,60.68
2023-06-07T20:42:49.850Z,60.57
2023-06-07T20:43:49.171Z,60.44
2023-06-07T20:44:53.411Z,60.35
2023-06-07T20:45:49.209Z,60.44
2023-06-07T20:46:49.160Z,60.44
2023-06-07T20:47:49.171Z,60.44
2023-06-07T20:48:49.111Z,60.64
2023-06-07T20:49:49.113Z,60.64
2023-06-07T20:50:49.077Z,60.77
2023-06-07T20:51:49.100Z,60.74
2023-06-07T20:52:49.022Z,60.64
2023-06-07T20:53:49.042Z,60.74
2023-06-07T20:54:49.018Z,60.74
2023-06-07T20:55:49.763Z,60.97
2023-06-07T20:56:49.021Z,61.07
2023-06-07T20:57:49.007Z,61.17
2023-06-07T20:58:48.965Z,61.27
2023-06-07T20:59:48.996Z,61.37
2023-06-07T21:00:48.937Z,61.17
2023-06-07T21:01:49.032Z,61.37
2023-06-07T21:02:49.037Z,61.50
2023-06-07T21:03:51.760Z,61.80
2023-06-07T21:04:48.880Z,62.02
2023-06-07T21:05:48.911Z,62.13
2023-06-07T21:06:48.893Z,62.13
2023-06-07T21:07:48.889Z,62.13
2023-06-07T21:08:48.897Z,62.13
2023-06-07T21:09:48.898Z,62.13
2023-06-07T21:10:48.850Z,62.42
2023-06-07T21:11:49.755Z,62.52
2023-06-07T21:12:48.857Z,62.02
2023-06-07T21:13:48.827Z,62.15
2023-06-07T21:14:48.805Z,62.55
2023-06-07T21:15:48.883Z,62.45
2023-06-07T21:16:48.862Z,62.45
2023-06-07T21:24:43.336Z,62.88
2023-06-07T21:25:44.337Z,62.48
2023-06-07T21:26:44.301Z,62.68
2023-06-07T21:27:45.000Z,63.08
2023-06-07T21:28:44.330Z,63.35
2023-06-07T21:29:44.311Z,63.15
2023-06-07T21:30:44.265Z,63.15
2023-06-07T21:31:45.067Z,62.52
2023-06-07T21:32:44.349Z,62.42
2023-06-07T21:35:02.378Z,62.69
2023-06-07T21:36:03.288Z,62.07
2023-06-07T21:37:03.330Z,61.27
2023-06-07T21:38:03.376Z,60.94
2023-06-07T21:39:03.314Z,60.74
2023-06-07T21:40:03.582Z,60.02
2023-06-07T21:41:03.289Z,59.52
2023-06-07T21:42:03.260Z,59.42
2023-06-07T21:43:03.244Z,59.03
2023-06-07T21:44:03.252Z,58.80
2023-06-07T21:45:03.256Z,58.90
2023-06-07T21:46:03.252Z,58.80
2023-06-07T21:47:03.258Z,58.50
2023-06-07T21:48:03.260Z,58.50
2023-06-07T21:49:03.257Z,58.00
2023-06-07T21:50:03.280Z,58.20
2023-06-07T21:51:03.173Z,58.40
2023-06-07T21:52:03.238Z,58.80
2023-06-07T21:53:03.119Z,58.30
2023-06-07T21:54:03.136Z,58.20
2023-06-07T21:55:03.138Z,58.30
2023-06-07T21:56:03.106Z,58.60
2023-06-07T21:57:03.117Z,58.70
2023-06-07T21:58:03.110Z,58.40
2023-06-07T21:59:03.109Z,58.40
2023-06-07T22:00:03.112Z,58.50
2023-06-07T22:01:03.295Z,58.80
2023-06-07T22:02:03.026Z,58.60
2023-06-07T22:03:03.911Z,58.50
2023-06-07T22:04:03.084Z,58.50
2023-06-07T22:05:03.000Z,58.53
2023-06-07T22:06:02.993Z,58.62
2023-06-07T22:07:02.989Z,58.73
2023-06-07T22:08:02.990Z,58.62
2023-06-07T22:09:06.045Z,58.33
2023-06-07T22:10:03.459Z,58.53
2023-06-07T22:11:02.914Z,58.62
2023-06-07T22:12:02.955Z,58.33
2023-06-07T22:13:02.957Z,58.23
2023-06-07T22:14:02.963Z,58.43
2023-06-07T22:15:02.905Z,58.62
2023-06-07T22:16:02.961Z,58.62
2023-06-07T22:17:02.985Z,58.62
2023-06-07T22:18:02.918Z,58.56
2023-06-07T22:19:02.888Z,58.26
2023-06-07T22:20:03.084Z,58.36
2023-06-07T22:21:02.835Z,58.45
2023-06-07T22:22:02.888Z,58.45
2023-06-07T22:23:02.826Z,58.75
2023-06-07T22:24:02.893Z,58.98
2023-06-07T22:25:02.782Z,58.88
2023-06-07T22:26:02.826Z,59.08
2023-06-07T22:27:02.725Z,59.08
2023-06-07T22:28:02.772Z,59.18
2023-06-07T22:29:02.726Z,59.28
2023-06-07T22:30:02.792Z,59.38
2023-06-07T22:31:03.443Z,59.38
2023-06-07T22:32:02.736Z,59.38
2023-06-07T22:33:02.702Z,59.18
2023-06-07T22:34:02.738Z,59.48
2023-06-07T22:35:02.639Z,59.28
2023-06-07T22:36:02.699Z,59.48
2023-06-07T22:37:02.651Z,59.38
2023-06-07T22:38:02.679Z,59.48
2023-06-07T22:39:02.643Z,59.48
2023-06-07T22:40:02.716Z,59.78
2023-06-07T22:41:02.630Z,59.81
2023-06-07T22:42:02.632Z,59.81
2023-06-07T22:43:02.553Z,59.70
2023-06-07T22:44:02.626Z,59.81
2023-06-07T22:45:02.528Z,59.81
2023-06-07T22:46:02.630Z,59.70
2023-06-07T22:47:02.590Z,59.70
2023-06-07T22:48:02.751Z,59.70
2023-06-07T22:49:02.510Z,59.70
2023-06-07T22:50:02.779Z,60.11
2023-06-07T22:51:02.477Z,60.30
2023-06-07T22:52:04.637Z,60.13
2023-06-07T22:53:02.451Z,60.24
2023-06-07T22:54:03.198Z,60.33
2023-06-07T22:55:03.221Z,60.33
2023-06-07T22:56:02.487Z,60.24
2023-06-07T22:57:02.398Z,60.53
2023-06-07T22:58:02.680Z,60.33
2023-06-07T22:59:02.375Z,60.33
2023-06-07T23:00:02.421Z,60.43
2023-06-07T23:01:02.371Z,60.53
2023-06-07T23:02:02.409Z,60.43
2023-06-07T23:03:02.458Z,60.53
2023-06-07T23:04:02.581Z,60.33
2023-06-07T23:05:02.325Z,60.63
2023-06-07T23:06:02.351Z,60.83
2023-06-07T23:07:02.289Z,60.93
2023-06-07T23:08:02.354Z,61.03
2023-06-07T23:09:02.371Z,61.03
2023-06-07T23:10:02.802Z,61.03
2023-06-07T23:11:02.246Z,61.13
2023-06-07T23:12:02.309Z,61.43
2023-06-07T23:13:02.888Z,62.02
2023-06-07T23:14:02.307Z,62.23
2023-06-07T23:15:02.280Z,62.32
2023-06-07T23:16:02.272Z,62.52
2023-06-07T23:17:02.184Z,62.82
2023-06-07T23:18:02.291Z,62.82
2023-06-07T23:19:02.152Z,62.92
2023-06-07T23:20:02.985Z,62.82
2023-06-07T23:21:02.257Z,62.99
2023-06-07T23:22:02.183Z,62.89
2023-06-07T23:23:02.772Z,63.09
2023-06-07T23:24:02.162Z,63.09
2023-06-07T23:25:02.125Z,63.09
2023-06-07T23:26:02.151Z,62.99
2023-06-07T23:27:02.493Z,62.99
2023-06-07T23:28:02.816Z,62.89
2023-06-07T23:29:03.755Z,62.79
2023-06-07T23:30:02.866Z,62.79
2023-06-07T23:31:02.313Z,62.89
2023-06-07T23:32:02.533Z,62.99
2023-06-07T23:33:02.476Z,62.99
2023-06-07T23:34:02.469Z,62.99
2023-06-07T23:35:02.130Z,63.29
2023-06-07T23:36:02.440Z,63.19
2023-06-07T23:37:01.976Z,63.19
2023-06-07T23:38:02.245Z,63.09
2023-06-07T23:39:01.998Z,63.09
2023-06-07T23:40:03.626Z,63.19
2023-06-07T23:41:01.942Z,63.19
2023-06-07T23:42:01.999Z,63.49
2023-06-07T23:43:02.600Z,63.59
2023-06-07T23:44:02.085Z,63.49
2023-06-07T23:45:02.591Z,63.39
2023-06-07T23:46:02.496Z,63.59
2023-06-07T23:47:23.649Z,63.59
2023-06-07T23:48:03.946Z,63.59
2023-06-07T23:49:01.908Z,63.98
2023-06-07T23:50:01.884Z,63.98
2023-06-07T23:51:01.894Z,63.79
2023-06-07T23:52:01.832Z,63.98
2023-06-07T23:53:01.867Z,63.98
2023-06-07T23:54:01.797Z,63.89
2023-06-07T23:55:01.835Z,63.89
2023-06-07T23:56:01.804Z,63.89
2023-06-07T23:57:01.784Z,63.79
2023-06-07T23:58:02.538Z,63.79
2023-06-07T23:59:01.777Z,63.69
